sensor_id;sensor_type;location;lat;lon;timestamp;pressure;altitude;pressure_sealevel;temperature;humidity
8451;BME280;4262;50.980;13.892;2024-02-21T00:01:56;86303.22;;;-142.97;47.36
8451;BME280;4262;50.980;13.892;2024-02-21T00:04:22;86263.81;;;-142.97;47.40
8451;BME280;4262;50.980;13.892;2024-02-21T00:06:49;86253.94;;;-142.97;47.46
8451;BME280;4262;50.980;13.892;2024-02-21T00:09:16;86277.59;;;-142.97;47.16
8451;BME280;4262;50.980;13.892;2024-02-21T00:11:46;86330.78;;;-142.97;48.09
8451;BME280;4262;50.980;13.892;2024-02-21T00:14:13;86309.13;;;-142.97;47.48
8451;BME280;4262;50.980;13.892;2024-02-21T00:16:40;86307.16;;;-142.97;47.86
8451;BME280;4262;50.980;13.892;2024-02-21T00:19:06;86299.25;;;-142.97;47.43
8451;BME280;4262;50.980;13.892;2024-02-21T00:21:33;86255.91;;;-142.97;47.31
8451;BME280;4262;50.980;13.892;2024-02-21T00:24:00;86297.28;;;-142.97;47.09
8451;BME280;4262;50.980;13.892;2024-02-21T00:26:27;86250.00;;;-142.97;47.63
8451;BME280;4262;50.980;13.892;2024-02-21T00:28:55;86255.91;;;-142.97;47.04
8451;BME280;4262;50.980;13.892;2024-02-21T00:31:22;86283.50;;;-142.97;47.41
8451;BME280;4262;50.980;13.892;2024-02-21T00:33:49;86317.00;;;-142.97;47.40
8451;BME280;4262;50.980;13.892;2024-02-21T00:36:16;86305.19;;;-142.97;48.06
8451;BME280;4262;50.980;13.892;2024-02-21T00:38:43;86267.75;;;-142.97;47.38
8451;BME280;4262;50.980;13.892;2024-02-21T00:41:10;86366.25;;;-142.97;46.84
8451;BME280;4262;50.980;13.892;2024-02-21T00:43:37;86328.81;;;-142.97;47.40
8451;BME280;4262;50.980;13.892;2024-02-21T00:46:06;86267.75;;;-142.97;47.19
8451;BME280;4262;50.980;13.892;2024-02-21T00:48:33;86271.69;;;-142.97;46.99
8451;BME280;4262;50.980;13.892;2024-02-21T00:51:01;86295.31;;;-142.97;46.99
8451;BME280;4262;50.980;13.892;2024-02-21T00:53:27;86257.88;;;-142.97;47.23
8451;BME280;4262;50.980;13.892;2024-02-21T00:55:54;86204.69;;;-142.97;46.90
8451;BME280;4262;50.980;13.892;2024-02-21T00:58:22;86240.16;;;-142.97;46.92
8451;BME280;4262;50.980;13.892;2024-02-21T01:00:49;86251.97;;;-142.97;46.30
8451;BME280;4262;50.980;13.892;2024-02-21T01:03:17;86281.53;;;-142.97;46.97
8451;BME280;4262;50.980;13.892;2024-02-21T01:05:43;86320.94;;;-142.97;46.68
8451;BME280;4262;50.980;13.892;2024-02-21T01:08:10;86273.66;;;-142.97;46.73
8451;BME280;4262;50.980;13.892;2024-02-21T01:10:37;86226.38;;;-142.97;46.41
8451;BME280;4262;50.980;13.892;2024-02-21T01:13:04;86236.22;;;-142.97;46.02
8451;BME280;4262;50.980;13.892;2024-02-21T01:15:31;86220.47;;;-142.97;45.81
8451;BME280;4262;50.980;13.892;2024-02-21T01:17:58;86297.28;;;-142.97;46.64
8451;BME280;4262;50.980;13.892;2024-02-21T01:20:26;86248.03;;;-142.97;46.47
8451;BME280;4262;50.980;13.892;2024-02-21T01:22:53;86267.75;;;-142.97;46.46
8451;BME280;4262;50.980;13.892;2024-02-21T01:25:19;86332.75;;;-142.97;47.21
8451;BME280;4262;50.980;13.892;2024-02-21T01:27:46;86301.25;;;-142.97;46.90
8451;BME280;4262;50.980;13.892;2024-02-21T01:30:13;86320.94;;;-142.97;47.00
8451;BME280;4262;50.980;13.892;2024-02-21T01:32:40;86277.59;;;-142.97;46.75
8451;BME280;4262;50.980;13.892;2024-02-21T01:35:07;86250.00;;;-142.97;46.36
8451;BME280;4262;50.980;13.892;2024-02-21T01:37:36;86232.28;;;-142.97;46.15
8451;BME280;4262;50.980;13.892;2024-02-21T01:40:03;86275.63;;;-142.97;46.51
8451;BME280;4262;50.980;13.892;2024-02-21T01:42:30;86234.25;;;-142.97;46.34
8451;BME280;4262;50.980;13.892;2024-02-21T01:44:57;86267.75;;;-142.97;46.06
8451;BME280;4262;50.980;13.892;2024-02-21T01:47:24;86244.09;;;-142.97;46.02
8451;BME280;4262;50.980;13.892;2024-02-21T01:49:51;86222.44;;;-142.97;45.86
8451;BME280;4262;50.980;13.892;2024-02-21T01:52:18;86230.31;;;-142.97;46.18
8451;BME280;4262;50.980;13.892;2024-02-21T01:54:46;86222.44;;;-142.97;45.77
8451;BME280;4262;50.980;13.892;2024-02-21T01:57:14;86222.44;;;-142.97;45.73
8451;BME280;4262;50.980;13.892;2024-02-21T01:59:41;86240.16;;;-142.97;45.61
8451;BME280;4262;50.980;13.892;2024-02-21T02:02:08;86261.84;;;-142.97;45.87
8451;BME280;4262;50.980;13.892;2024-02-21T02:04:38;86261.84;;;-142.97;46.12
8451;BME280;4262;50.980;13.892;2024-02-21T02:07:06;86236.22;;;-142.97;46.05
8451;BME280;4262;50.980;13.892;2024-02-21T02:09:34;86204.69;;;-142.97;45.79
8451;BME280;4262;50.980;13.892;2024-02-21T02:12:02;86212.56;;;-142.97;45.59
8451;BME280;4262;50.980;13.892;2024-02-21T02:14:29;86251.97;;;-142.97;45.92
8451;BME280;4262;50.980;13.892;2024-02-21T02:16:56;86250.00;;;-142.97;46.49
8451;BME280;4262;50.980;13.892;2024-02-21T02:19:23;86287.44;;;-142.97;46.95
8451;BME280;4262;50.980;13.892;2024-02-21T02:21:53;86287.44;;;-142.97;47.14
8451;BME280;4262;50.980;13.892;2024-02-21T02:24:24;86305.19;;;-142.97;47.81
8451;BME280;4262;50.980;13.892;2024-02-21T02:26:51;86549.50;;;-142.97;48.06
8451;BME280;4262;50.980;13.892;2024-02-21T02:29:18;86317.00;;;-142.97;48.59
8451;BME280;4262;50.980;13.892;2024-02-21T02:31:45;86356.41;;;-142.97;48.22
8451;BME280;4262;50.980;13.892;2024-02-21T02:34:12;86385.97;;;-142.97;48.50
8451;BME280;4262;50.980;13.892;2024-02-21T02:36:38;86362.31;;;-142.97;48.52
8451;BME280;4262;50.980;13.892;2024-02-21T02:39:05;86360.34;;;-142.97;48.78
8451;BME280;4262;50.980;13.892;2024-02-21T02:41:36;86344.59;;;-142.97;49.13
8451;BME280;4262;50.980;13.892;2024-02-21T02:44:03;86384.00;;;-142.97;49.09
8451;BME280;4262;50.980;13.892;2024-02-21T02:46:30;86352.47;;;-142.97;49.11
8451;BME280;4262;50.980;13.892;2024-02-21T02:48:56;86372.16;;;-142.97;49.29
8451;BME280;4262;50.980;13.892;2024-02-21T02:51:23;86368.22;;;-142.97;49.37
8451;BME280;4262;50.980;13.892;2024-02-21T02:53:50;86378.06;;;-142.97;49.05
8451;BME280;4262;50.980;13.892;2024-02-21T02:56:17;86360.34;;;-142.97;49.44
8451;BME280;4262;50.980;13.892;2024-02-21T02:58:45;86374.13;;;-142.97;49.32
8451;BME280;4262;50.980;13.892;2024-02-21T03:01:12;86340.66;;;-142.97;48.96
8451;BME280;4262;50.980;13.892;2024-02-21T03:03:39;86352.47;;;-142.97;49.12
8451;BME280;4262;50.980;13.892;2024-02-21T03:06:05;86348.53;;;-142.97;49.26
8451;BME280;4262;50.980;13.892;2024-02-21T03:08:32;86360.34;;;-142.97;48.80
8451;BME280;4262;50.980;13.892;2024-02-21T03:10:59;86320.94;;;-142.97;49.02
8451;BME280;4262;50.980;13.892;2024-02-21T03:13:26;86358.38;;;-142.97;49.04
8451;BME280;4262;50.980;13.892;2024-02-21T03:15:54;86364.28;;;-142.97;48.92
8451;BME280;4262;50.980;13.892;2024-02-21T03:18:21;86391.88;;;-142.97;50.16
8451;BME280;4262;50.980;13.892;2024-02-21T03:20:48;86364.28;;;-142.97;49.43
8451;BME280;4262;50.980;13.892;2024-02-21T03:23:14;86401.72;;;-142.97;49.06
8451;BME280;4262;50.980;13.892;2024-02-21T03:25:41;86415.50;;;-142.97;50.10
8451;BME280;4262;50.980;13.892;2024-02-21T03:28:08;86431.28;;;-142.97;49.99
8451;BME280;4262;50.980;13.892;2024-02-21T03:30:34;86421.44;;;-142.97;50.02
8451;BME280;4262;50.980;13.892;2024-02-21T03:33:03;86413.53;;;-142.97;49.96
8451;BME280;4262;50.980;13.892;2024-02-21T03:35:30;86382.03;;;-142.97;49.58
8451;BME280;4262;50.980;13.892;2024-02-21T03:37:56;86423.41;;;-142.97;49.79
8451;BME280;4262;50.980;13.892;2024-02-21T03:40:23;86415.50;;;-142.97;50.01
8451;BME280;4262;50.980;13.892;2024-02-21T03:42:50;86435.22;;;-142.97;50.62
8451;BME280;4262;50.980;13.892;2024-02-21T03:45:17;86206.66;;;-142.97;50.27
8451;BME280;4262;50.980;13.892;2024-02-21T03:47:43;86435.22;;;-142.97;50.82
8451;BME280;4262;50.980;13.892;2024-02-21T03:50:11;86443.09;;;-142.97;51.32
8451;BME280;4262;50.980;13.892;2024-02-21T03:52:38;86443.09;;;-142.97;51.24
8451;BME280;4262;50.980;13.892;2024-02-21T03:55:06;86490.38;;;-142.97;52.15
8451;BME280;4262;50.980;13.892;2024-02-21T03:57:33;86468.72;;;-142.97;51.99
8451;BME280;4262;50.980;13.892;2024-02-21T03:59:59;86474.63;;;-142.97;52.21
8451;BME280;4262;50.980;13.892;2024-02-21T04:02:26;86450.97;;;-142.97;51.64
8451;BME280;4262;50.980;13.892;2024-02-21T04:04:53;86423.41;;;-142.97;51.18
8451;BME280;4262;50.980;13.892;2024-02-21T04:07:21;86447.03;;;-142.97;51.27
8451;BME280;4262;50.980;13.892;2024-02-21T04:09:48;86405.66;;;-142.97;50.33
8451;BME280;4262;50.980;13.892;2024-02-21T04:12:15;86421.44;;;-142.97;50.26
8451;BME280;4262;50.980;13.892;2024-02-21T04:14:42;86488.41;;;-142.97;50.19
8451;BME280;4262;50.980;13.892;2024-02-21T04:17:09;86417.50;;;-142.97;50.61
8451;BME280;4262;50.980;13.892;2024-02-21T04:19:35;86387.94;;;-142.97;50.38
8451;BME280;4262;50.980;13.892;2024-02-21T04:22:02;86378.06;;;-142.97;50.02
8451;BME280;4262;50.980;13.892;2024-02-21T04:24:30;86417.50;;;-142.97;50.20
8451;BME280;4262;50.980;13.892;2024-02-21T04:26:57;86415.50;;;-142.97;50.38
8451;BME280;4262;50.980;13.892;2024-02-21T04:29:24;86409.59;;;-142.97;50.94
8451;BME280;4262;50.980;13.892;2024-02-21T04:31:53;86476.59;;;-142.97;51.63
8451;BME280;4262;50.980;13.892;2024-02-21T04:34:20;86458.88;;;-142.97;51.98
8451;BME280;4262;50.980;13.892;2024-02-21T04:36:46;86474.63;;;-142.97;51.84
8451;BME280;4262;50.980;13.892;2024-02-21T04:39:13;86504.19;;;-142.97;53.09
8451;BME280;4262;50.980;13.892;2024-02-21T04:41:41;86510.09;;;-142.97;53.23
8451;BME280;4262;50.980;13.892;2024-02-21T04:44:08;86498.28;;;-142.97;53.07
8451;BME280;4262;50.980;13.892;2024-02-21T04:46:35;86502.22;;;-142.97;52.66
8451;BME280;4262;50.980;13.892;2024-02-21T04:49:02;86494.34;;;-142.97;52.86
8451;BME280;4262;50.980;13.892;2024-02-21T04:51:28;86431.28;;;-142.97;51.68
8451;BME280;4262;50.980;13.892;2024-02-21T04:53:55;86397.78;;;-142.97;51.59
8451;BME280;4262;50.980;13.892;2024-02-21T04:56:22;86476.59;;;-142.97;52.15
8451;BME280;4262;50.980;13.892;2024-02-21T04:58:50;86482.50;;;-142.97;53.01
8451;BME280;4262;50.980;13.892;2024-02-21T05:01:17;86506.16;;;-142.97;52.14
8451;BME280;4262;50.980;13.892;2024-02-21T05:03:44;86468.72;;;-142.97;52.29
8451;BME280;4262;50.980;13.892;2024-02-21T05:06:10;86474.63;;;-142.97;51.99
8451;BME280;4262;50.980;13.892;2024-02-21T05:08:37;86466.75;;;-142.97;52.72
8451;BME280;4262;50.980;13.892;2024-02-21T05:11:04;86450.97;;;-142.97;52.72
8451;BME280;4262;50.980;13.892;2024-02-21T05:13:31;86427.34;;;-142.97;51.59
8451;BME280;4262;50.980;13.892;2024-02-21T05:15:59;86421.44;;;-142.97;51.70
8451;BME280;4262;50.980;13.892;2024-02-21T05:18:27;86401.72;;;-142.97;51.75
8451;BME280;4262;50.980;13.892;2024-02-21T05:20:54;86449.00;;;-142.97;51.36
8451;BME280;4262;50.980;13.892;2024-02-21T05:23:20;86421.44;;;-142.97;51.58
8451;BME280;4262;50.980;13.892;2024-02-21T05:25:47;86468.72;;;-142.97;52.64
8451;BME280;4262;50.980;13.892;2024-02-21T05:28:14;86447.03;;;-142.97;53.20
8451;BME280;4262;50.980;13.892;2024-02-21T05:30:40;86460.84;;;-142.97;53.29
8451;BME280;4262;50.980;13.892;2024-02-21T05:33:10;86449.00;;;-142.97;53.02
8451;BME280;4262;50.980;13.892;2024-02-21T05:35:36;86417.50;;;-142.97;52.09
8451;BME280;4262;50.980;13.892;2024-02-21T05:38:03;86401.72;;;-142.97;52.28
8451;BME280;4262;50.980;13.892;2024-02-21T05:40:37;86409.59;;;-142.97;52.54
8451;BME280;4262;50.980;13.892;2024-02-21T05:43:03;86427.34;;;-142.97;52.60
8451;BME280;4262;50.980;13.892;2024-02-21T05:45:30;86449.00;;;-142.97;52.69
8451;BME280;4262;50.980;13.892;2024-02-21T05:47:57;86401.72;;;-142.97;52.28
8451;BME280;4262;50.980;13.892;2024-02-21T05:50:26;86397.78;;;-142.97;52.23
8451;BME280;4262;50.980;13.892;2024-02-21T05:52:54;86391.88;;;-142.97;51.87
8451;BME280;4262;50.980;13.892;2024-02-21T05:55:21;86385.97;;;-142.97;51.17
8451;BME280;4262;50.980;13.892;2024-02-21T05:57:48;86307.16;;;-142.97;51.08
8451;BME280;4262;50.980;13.892;2024-02-21T06:00:15;86387.94;;;-142.97;51.21
8451;BME280;4262;50.980;13.892;2024-02-21T06:02:42;86370.19;;;-142.97;50.88
8451;BME280;4262;50.980;13.892;2024-02-21T06:05:09;86354.44;;;-142.97;51.13
8451;BME280;4262;50.980;13.892;2024-02-21T06:07:38;86372.16;;;-142.97;51.23
8451;BME280;4262;50.980;13.892;2024-02-21T06:10:07;86384.00;;;-142.97;51.63
8451;BME280;4262;50.980;13.892;2024-02-21T06:12:34;86370.19;;;-142.97;51.25
8451;BME280;4262;50.980;13.892;2024-02-21T06:15:00;86364.28;;;-142.97;50.63
8451;BME280;4262;50.980;13.892;2024-02-21T06:17:27;86356.41;;;-142.97;50.66
8451;BME280;4262;50.980;13.892;2024-02-21T06:19:54;86352.47;;;-142.97;50.73
8451;BME280;4262;50.980;13.892;2024-02-21T06:22:20;86340.66;;;-142.97;50.71
8451;BME280;4262;50.980;13.892;2024-02-21T06:24:48;86346.56;;;-142.97;49.70
8451;BME280;4262;50.980;13.892;2024-02-21T06:27:15;86320.94;;;-142.97;50.02
8451;BME280;4262;50.980;13.892;2024-02-21T06:29:42;86271.69;;;-142.97;49.51
8451;BME280;4262;50.980;13.892;2024-02-21T06:32:09;86297.28;;;-142.97;49.64
8451;BME280;4262;50.980;13.892;2024-02-21T06:34:36;86307.16;;;-142.97;50.05
8451;BME280;4262;50.980;13.892;2024-02-21T06:37:03;86303.22;;;-142.97;49.60
8451;BME280;4262;50.980;13.892;2024-02-21T06:39:30;86295.31;;;-142.97;49.18
8451;BME280;4262;50.980;13.892;2024-02-21T06:41:58;86271.69;;;-142.97;48.48
8451;BME280;4262;50.980;13.892;2024-02-21T06:44:25;86307.16;;;-142.97;48.92
8451;BME280;4262;50.980;13.892;2024-02-21T06:46:52;86293.34;;;-142.97;49.56
8451;BME280;4262;50.980;13.892;2024-02-21T06:49:20;86287.44;;;-142.97;49.67
8451;BME280;4262;50.980;13.892;2024-02-21T06:51:47;86437.19;;;-142.97;49.89
8451;BME280;4262;50.980;13.892;2024-02-21T06:54:13;86281.53;;;-142.97;50.38
8451;BME280;4262;50.980;13.892;2024-02-21T06:56:40;86313.06;;;-142.97;50.54
8451;BME280;4262;50.980;13.892;2024-02-21T06:59:08;86273.66;;;-142.97;50.39
8451;BME280;4262;50.980;13.892;2024-02-21T07:01:36;86340.66;;;-142.97;49.35
8451;BME280;4262;50.980;13.892;2024-02-21T07:04:02;86313.06;;;-142.97;49.79
8451;BME280;4262;50.980;13.892;2024-02-21T07:06:29;86287.44;;;-142.97;50.28
8451;BME280;4262;50.980;13.892;2024-02-21T07:08:56;86255.91;;;-142.97;49.99
8451;BME280;4262;50.980;13.892;2024-02-21T07:11:23;86263.81;;;-142.97;50.01
8451;BME280;4262;50.980;13.892;2024-02-21T07:13:49;86250.00;;;-142.97;50.69
8451;BME280;4262;50.980;13.892;2024-02-21T07:16:17;86244.09;;;-142.97;51.13
8451;BME280;4262;50.980;13.892;2024-02-21T07:18:44;86232.28;;;-142.97;50.62
8451;BME280;4262;50.980;13.892;2024-02-21T07:21:11;86275.63;;;-142.97;50.57
8451;BME280;4262;50.980;13.892;2024-02-21T07:23:40;86293.34;;;-142.97;50.80
8451;BME280;4262;50.980;13.892;2024-02-21T07:26:07;86299.25;;;-142.97;50.93
8451;BME280;4262;50.980;13.892;2024-02-21T07:28:34;86301.25;;;-142.97;50.76
8451;BME280;4262;50.980;13.892;2024-02-21T07:31:01;86261.84;;;-142.97;51.07
8451;BME280;4262;50.980;13.892;2024-02-21T07:33:29;86313.06;;;-142.97;50.64
8451;BME280;4262;50.980;13.892;2024-02-21T07:35:56;86299.25;;;-142.97;51.13
8451;BME280;4262;50.980;13.892;2024-02-21T07:38:23;86261.84;;;-142.97;51.60
8451;BME280;4262;50.980;13.892;2024-02-21T07:40:49;86253.94;;;-142.97;51.26
8451;BME280;4262;50.980;13.892;2024-02-21T07:43:16;86212.56;;;-142.97;51.24
8451;BME280;4262;50.980;13.892;2024-02-21T07:45:43;86212.56;;;-142.97;51.15
8451;BME280;4262;50.980;13.892;2024-02-21T07:48:10;86181.06;;;-142.97;51.50
8451;BME280;4262;50.980;13.892;2024-02-21T07:50:38;86149.53;;;-142.97;50.93
8451;BME280;4262;50.980;13.892;2024-02-21T07:53:04;86098.31;;;-142.97;51.50
8451;BME280;4262;50.980;13.892;2024-02-21T07:55:31;85995.84;;;-142.97;49.83
8451;BME280;4262;50.980;13.892;2024-02-21T07:57:57;85976.16;;;-142.97;49.33
8451;BME280;4262;50.980;13.892;2024-02-21T08:00:24;85968.28;;;-142.97;48.34
8451;BME280;4262;50.980;13.892;2024-02-21T08:02:53;85960.38;;;-142.97;46.53
8451;BME280;4262;50.980;13.892;2024-02-21T08:05:19;86023.44;;;-142.97;47.89
8451;BME280;4262;50.980;13.892;2024-02-21T08:07:48;86011.63;;;-142.97;47.68
8451;BME280;4262;50.980;13.892;2024-02-21T08:10:15;86039.19;;;-142.97;47.53
8451;BME280;4262;50.980;13.892;2024-02-21T08:12:41;86051.03;;;-142.97;47.37
8451;BME280;4262;50.980;13.892;2024-02-21T08:15:08;86053.00;;;-142.97;47.21
8451;BME280;4262;50.980;13.892;2024-02-21T08:17:36;86015.56;;;-142.97;46.92
8451;BME280;4262;50.980;13.892;2024-02-21T08:20:03;85698.38;;;-142.97;47.33
8451;BME280;4262;50.980;13.892;2024-02-21T08:22:31;85928.88;;;-142.97;46.71
8451;BME280;4262;50.980;13.892;2024-02-21T08:24:58;85887.50;;;-142.97;46.64
8451;BME280;4262;50.980;13.892;2024-02-21T08:27:26;85954.47;;;-142.97;45.28
8451;BME280;4262;50.980;13.892;2024-02-21T08:29:52;85812.63;;;-142.97;45.99
8451;BME280;4262;50.980;13.892;2024-02-21T08:32:19;85859.91;;;-142.97;45.76
8451;BME280;4262;50.980;13.892;2024-02-21T08:34:46;85865.81;;;-142.97;45.27
8451;BME280;4262;50.980;13.892;2024-02-21T08:37:13;85883.56;;;-142.97;45.62
8451;BME280;4262;50.980;13.892;2024-02-21T08:39:40;85946.59;;;-142.97;45.52
8451;BME280;4262;50.980;13.892;2024-02-21T08:42:08;85838.25;;;-142.97;45.27
8451;BME280;4262;50.980;13.892;2024-02-21T08:44:35;85787.03;;;-142.97;45.71
8451;BME280;4262;50.980;13.892;2024-02-21T08:47:03;85554.56;;;-142.97;45.15
8451;BME280;4262;50.980;13.892;2024-02-21T08:49:31;85485.63;;;-142.97;42.86
8451;BME280;4262;50.980;13.892;2024-02-21T08:51:58;85465.94;;;-142.97;41.85
8451;BME280;4262;50.980;13.892;2024-02-21T08:54:25;85631.41;;;-142.97;41.18
8451;BME280;4262;50.980;13.892;2024-02-21T08:56:51;85720.06;;;-142.97;41.88
8451;BME280;4262;50.980;13.892;2024-02-21T08:59:20;85993.88;;;-142.97;43.39
8451;BME280;4262;50.980;13.892;2024-02-21T09:01:47;85938.72;;;-142.97;43.54
8451;BME280;4262;50.980;13.892;2024-02-21T09:04:13;86072.69;;;-142.97;43.75
8451;BME280;4262;50.980;13.892;2024-02-21T09:06:40;86114.06;;;-142.97;45.24
8451;BME280;4262;50.980;13.892;2024-02-21T09:09:08;86086.47;;;-142.97;44.92
8451;BME280;4262;50.980;13.892;2024-02-21T09:11:35;86043.13;;;-142.97;45.03
8451;BME280;4262;50.980;13.892;2024-02-21T09:14:01;86056.94;;;-142.97;45.35
8451;BME280;4262;50.980;13.892;2024-02-21T09:16:32;86086.47;;;-142.97;45.30
8451;BME280;4262;50.980;13.892;2024-02-21T09:18:59;86125.88;;;-142.97;45.57
8451;BME280;4262;50.980;13.892;2024-02-21T09:21:26;86133.75;;;-142.97;46.10
8451;BME280;4262;50.980;13.892;2024-02-21T09:23:53;86159.38;;;-142.97;45.85
8451;BME280;4262;50.980;13.892;2024-02-21T09:26:20;86183.03;;;-142.97;46.04
8451;BME280;4262;50.980;13.892;2024-02-21T09:28:47;86163.31;;;-142.97;46.16
8451;BME280;4262;50.980;13.892;2024-02-21T09:31:14;86179.09;;;-142.97;46.29
8451;BME280;4262;50.980;13.892;2024-02-21T09:33:42;86135.72;;;-142.97;45.98
8451;BME280;4262;50.980;13.892;2024-02-21T09:36:09;86078.59;;;-142.97;45.93
8451;BME280;4262;50.980;13.892;2024-02-21T09:38:36;86141.66;;;-142.97;46.12
8451;BME280;4262;50.980;13.892;2024-02-21T09:41:14;86204.69;;;-142.97;46.08
8451;BME280;4262;50.980;13.892;2024-02-21T09:43:43;86202.72;;;-142.97;46.22
8451;BME280;4262;50.980;13.892;2024-02-21T09:46:15;86175.13;;;-142.97;46.37
8451;BME280;4262;50.980;13.892;2024-02-21T09:48:56;86224.41;;;-142.97;46.85
8451;BME280;4262;50.980;13.892;2024-02-21T09:51:27;86208.63;;;-142.97;47.23
8451;BME280;4262;50.980;13.892;2024-02-21T09:53:56;86293.34;;;-142.97;47.25
8451;BME280;4262;50.980;13.892;2024-02-21T09:56:24;86263.81;;;-142.97;47.39
8451;BME280;4262;50.980;13.892;2024-02-21T09:58:51;86244.09;;;-142.97;47.21
8451;BME280;4262;50.980;13.892;2024-02-21T10:01:18;86206.66;;;-142.97;47.15
8451;BME280;4262;50.980;13.892;2024-02-21T10:03:46;86167.25;;;-142.97;47.26
8451;BME280;4262;50.980;13.892;2024-02-21T10:06:13;86208.63;;;-142.97;47.19
8451;BME280;4262;50.980;13.892;2024-02-21T10:08:40;86228.34;;;-142.97;47.36
8451;BME280;4262;50.980;13.892;2024-02-21T10:11:07;86228.34;;;-142.97;47.16
8451;BME280;4262;50.980;13.892;2024-02-21T10:13:35;86208.63;;;-142.97;47.01
8451;BME280;4262;50.980;13.892;2024-02-21T10:16:05;86196.81;;;-142.97;47.23
8451;BME280;4262;50.980;13.892;2024-02-21T10:18:32;86192.88;;;-142.97;46.74
8451;BME280;4262;50.980;13.892;2024-02-21T10:21:04;86163.31;;;-142.97;46.70
8451;BME280;4262;50.980;13.892;2024-02-21T10:23:42;86230.31;;;-142.97;47.32
8451;BME280;4262;50.980;13.892;2024-02-21T10:26:09;86267.75;;;-142.97;47.43
8451;BME280;4262;50.980;13.892;2024-02-21T10:28:36;86232.28;;;-142.97;47.55
8451;BME280;4262;50.980;13.892;2024-02-21T10:31:04;86169.22;;;-142.97;46.99
8451;BME280;4262;50.980;13.892;2024-02-21T10:33:30;86224.41;;;-142.97;47.29
8451;BME280;4262;50.980;13.892;2024-02-21T10:36:07;86204.69;;;-142.97;47.40
8451;BME280;4262;50.980;13.892;2024-02-21T10:38:36;86250.00;;;-142.97;47.57
8451;BME280;4262;50.980;13.892;2024-02-21T10:41:04;86218.50;;;-142.97;47.31
8451;BME280;4262;50.980;13.892;2024-02-21T10:43:37;86212.56;;;-142.97;47.09
8451;BME280;4262;50.980;13.892;2024-02-21T10:46:06;86202.72;;;-142.97;47.00
8451;BME280;4262;50.980;13.892;2024-02-21T10:48:41;86214.53;;;-142.97;46.63
8451;BME280;4262;50.980;13.892;2024-02-21T10:51:14;86206.66;;;-142.97;46.91
8451;BME280;4262;50.980;13.892;2024-02-21T10:53:45;86159.38;;;-142.97;46.63
8451;BME280;4262;50.980;13.892;2024-02-21T10:56:21;86183.03;;;-142.97;46.50
8451;BME280;4262;50.980;13.892;2024-02-21T10:58:48;86153.47;;;-142.97;46.65
8451;BME280;4262;50.980;13.892;2024-02-21T11:01:15;86186.97;;;-142.97;46.78
8451;BME280;4262;50.980;13.892;2024-02-21T11:03:45;86208.63;;;-142.97;47.19
8451;BME280;4262;50.980;13.892;2024-02-21T11:06:15;86230.31;;;-142.97;46.90
8451;BME280;4262;50.980;13.892;2024-02-21T11:08:44;86214.53;;;-142.97;47.08
8451;BME280;4262;50.980;13.892;2024-02-21T11:11:12;86192.88;;;-142.97;46.97
8451;BME280;4262;50.980;13.892;2024-02-21T11:13:43;86210.59;;;-142.97;46.97
8451;BME280;4262;50.980;13.892;2024-02-21T11:16:12;86232.28;;;-142.97;47.25
8451;BME280;4262;50.980;13.892;2024-02-21T11:18:48;86220.47;;;-142.97;47.02
8451;BME280;4262;50.980;13.892;2024-02-21T11:21:16;86212.56;;;-142.97;47.60
8451;BME280;4262;50.980;13.892;2024-02-21T11:23:43;86198.78;;;-142.97;47.38
8451;BME280;4262;50.980;13.892;2024-02-21T11:26:08;86157.41;;;-142.97;47.33
8451;BME280;4262;50.980;13.892;2024-02-21T11:28:36;86240.16;;;-142.97;47.58
8451;BME280;4262;50.980;13.892;2024-02-21T11:31:12;86216.50;;;-142.97;47.56
8451;BME280;4262;50.980;13.892;2024-02-21T11:33:41;86194.84;;;-142.97;47.76
8451;BME280;4262;50.980;13.892;2024-02-21T11:36:08;86250.00;;;-142.97;47.96
8451;BME280;4262;50.980;13.892;2024-02-21T11:38:36;86202.72;;;-142.97;47.81
8451;BME280;4262;50.980;13.892;2024-02-21T11:41:08;86214.53;;;-142.97;47.68
8451;BME280;4262;50.980;13.892;2024-02-21T11:43:34;86177.09;;;-142.97;47.54
8451;BME280;4262;50.980;13.892;2024-02-21T11:46:02;86226.38;;;-142.97;47.84
8451;BME280;4262;50.980;13.892;2024-02-21T11:48:31;86188.94;;;-142.97;47.45
8451;BME280;4262;50.980;13.892;2024-02-21T11:50:58;86145.59;;;-142.97;47.30
8451;BME280;4262;50.980;13.892;2024-02-21T11:53:26;86127.84;;;-142.97;46.87
8451;BME280;4262;50.980;13.892;2024-02-21T11:55:57;86110.13;;;-142.97;46.62
8451;BME280;4262;50.980;13.892;2024-02-21T11:58:24;86118.00;;;-142.97;46.38
8451;BME280;4262;50.980;13.892;2024-02-21T12:00:52;86121.94;;;-142.97;46.14
8451;BME280;4262;50.980;13.892;2024-02-21T12:03:19;86127.84;;;-142.97;46.63
8451;BME280;4262;50.980;13.892;2024-02-21T12:05:46;86019.50;;;-142.97;46.26
8451;BME280;4262;50.980;13.892;2024-02-21T12:08:13;85984.03;;;-142.97;45.07
8451;BME280;4262;50.980;13.892;2024-02-21T12:10:42;85887.50;;;-142.97;45.56
8451;BME280;4262;50.980;13.892;2024-02-21T12:13:11;85840.22;;;-142.97;45.37
8451;BME280;4262;50.980;13.892;2024-02-21T12:15:38;85692.47;;;-142.97;44.68
8451;BME280;4262;50.980;13.892;2024-02-21T12:18:06;85239.41;;;-142.97;42.62
8451;BME280;4262;50.980;13.892;2024-02-21T12:20:33;84932.16;;;-142.97;41.98
8451;BME280;4262;50.980;13.892;2024-02-21T12:23:02;84804.13;;;-142.97;40.32
8451;BME280;4262;50.980;13.892;2024-02-21T12:25:29;84798.22;;;-142.97;39.60
8451;BME280;4262;50.980;13.892;2024-02-21T12:27:56;85383.19;;;-142.97;39.21
8451;BME280;4262;50.980;13.892;2024-02-21T12:30:26;84693.84;;;-142.97;39.02
8451;BME280;4262;50.980;13.892;2024-02-21T12:32:53;84750.97;;;-142.97;38.66
8451;BME280;4262;50.980;13.892;2024-02-21T12:35:20;84605.22;;;-142.97;38.28
8451;BME280;4262;50.980;13.892;2024-02-21T12:37:46;84540.25;;;-142.97;37.52
8451;BME280;4262;50.980;13.892;2024-02-21T12:40:13;84069.59;;;-142.97;36.23
8451;BME280;4262;50.980;13.892;2024-02-21T12:42:40;84492.97;;;-142.97;37.44
8451;BME280;4262;50.980;13.892;2024-02-21T12:45:08;84309.84;;;-142.97;34.72
8451;BME280;4262;50.980;13.892;2024-02-21T12:47:36;84949.88;;;-142.97;35.99
8451;BME280;4262;50.980;13.892;2024-02-21T12:50:03;84711.56;;;-142.97;36.50
8451;BME280;4262;50.980;13.892;2024-02-21T12:52:32;84494.94;;;-142.97;36.27